sensor_id;sensor_type;location;lat;lon;timestamp;temperature;humidity
24730;DHT22;12832;52.392;13.066;2023-08-06T00:00:49;27.30;47.30
24730;DHT22;12832;52.392;13.066;2023-08-06T00:03:16;27.30;47.30
24730;DHT22;12832;52.392;13.066;2023-08-06T00:05:42;27.30;47.30
24730;DHT22;12832;52.392;13.066;2023-08-06T00:08:09;27.30;47.30
24730;DHT22;12832;52.392;13.066;2023-08-06T00:10:35;27.30;47.30
24730;DHT22;12832;52.392;13.066;2023-08-06T00:13:01;27.30;47.30
24730;DHT22;12832;52.392;13.066;2023-08-06T00:15:27;27.30;47.30
24730;DHT22;12832;52.392;13.066;2023-08-06T00:17:54;27.30;47.30
24730;DHT22;12832;52.392;13.066;2023-08-06T00:20:20;27.30;47.30
24730;DHT22;12832;52.392;13.066;2023-08-06T00:22:46;27.30;47.40
24730;DHT22;12832;52.392;13.066;2023-08-06T00:25:12;27.30;47.30
24730;DHT22;12832;52.392;13.066;2023-08-06T00:27:39;27.30;47.30
24730;DHT22;12832;52.392;13.066;2023-08-06T00:30:05;27.30;48.00
24730;DHT22;12832;52.392;13.066;2023-08-06T00:32:32;27.30;47.30
24730;DHT22;12832;52.392;13.066;2023-08-06T00:34:58;27.30;47.40
24730;DHT22;12832;52.392;13.066;2023-08-06T00:37:24;27.30;47.30
24730;DHT22;12832;52.392;13.066;2023-08-06T00:39:50;27.30;47.30
24730;DHT22;12832;52.392;13.066;2023-08-06T00:42:16;27.30;47.30
24730;DHT22;12832;52.392;13.066;2023-08-06T00:44:46;27.40;47.30
24730;DHT22;12832;52.392;13.066;2023-08-06T00:47:13;27.30;47.30
24730;DHT22;12832;52.392;13.066;2023-08-06T00:49:39;27.30;47.30
24730;DHT22;12832;52.392;13.066;2023-08-06T00:52:07;27.30;47.30
24730;DHT22;12832;52.392;13.066;2023-08-06T00:54:34;27.30;47.30
24730;DHT22;12832;52.392;13.066;2023-08-06T00:57:01;27.30;47.30
24730;DHT22;12832;52.392;13.066;2023-08-06T00:59:28;27.30;47.30
24730;DHT22;12832;52.392;13.066;2023-08-06T01:01:55;27.30;47.30
24730;DHT22;12832;52.392;13.066;2023-08-06T01:04:23;27.30;47.30
24730;DHT22;12832;52.392;13.066;2023-08-06T01:06:55;27.30;47.30
24730;DHT22;12832;52.392;13.066;2023-08-06T01:12:06;27.30;47.30
24730;DHT22;12832;52.392;13.066;2023-08-06T01:14:42;27.30;47.30
24730;DHT22;12832;52.392;13.066;2023-08-06T01:17:13;27.40;47.40
24730;DHT22;12832;52.392;13.066;2023-08-06T01:19:40;27.30;47.30
24730;DHT22;12832;52.392;13.066;2023-08-06T01:22:06;27.40;47.40
24730;DHT22;12832;52.392;13.066;2023-08-06T01:24:32;27.30;47.30
24730;DHT22;12832;52.392;13.066;2023-08-06T01:27:14;27.30;47.30
24730;DHT22;12832;52.392;13.066;2023-08-06T01:29:52;27.30;47.30
24730;DHT22;12832;52.392;13.066;2023-08-06T01:32:21;27.30;47.30
24730;DHT22;12832;52.392;13.066;2023-08-06T01:34:48;27.30;47.30
24730;DHT22;12832;52.392;13.066;2023-08-06T01:37:15;27.30;47.30
24730;DHT22;12832;52.392;13.066;2023-08-06T01:39:44;27.30;47.30
24730;DHT22;12832;52.392;13.066;2023-08-06T01:42:10;27.30;47.30
24730;DHT22;12832;52.392;13.066;2023-08-06T01:44:37;27.30;47.30
24730;DHT22;12832;52.392;13.066;2023-08-06T01:47:03;27.30;47.30
24730;DHT22;12832;52.392;13.066;2023-08-06T01:49:29;27.30;47.40
24730;DHT22;12832;52.392;13.066;2023-08-06T01:51:56;27.30;47.30
24730;DHT22;12832;52.392;13.066;2023-08-06T01:54:22;27.30;47.30
24730;DHT22;12832;52.392;13.066;2023-08-06T01:56:48;27.30;47.30
24730;DHT22;12832;52.392;13.066;2023-08-06T01:59:14;27.30;47.30
24730;DHT22;12832;52.392;13.066;2023-08-06T02:01:41;27.40;47.40
24730;DHT22;12832;52.392;13.066;2023-08-06T02:04:07;27.30;47.30
24730;DHT22;12832;52.392;13.066;2023-08-06T02:06:33;27.30;47.30
24730;DHT22;12832;52.392;13.066;2023-08-06T02:08:59;27.40;47.40
24730;DHT22;12832;52.392;13.066;2023-08-06T02:11:25;27.40;47.30
24730;DHT22;12832;52.392;13.066;2023-08-06T02:13:52;27.30;47.30
24730;DHT22;12832;52.392;13.066;2023-08-06T02:16:18;27.30;47.40
24730;DHT22;12832;52.392;13.066;2023-08-06T02:18:44;27.30;47.30
24730;DHT22;12832;52.392;13.066;2023-08-06T02:21:10;27.30;47.30
24730;DHT22;12832;52.392;13.066;2023-08-06T02:23:36;27.40;47.40
24730;DHT22;12832;52.392;13.066;2023-08-06T02:26:04;27.30;47.40
24730;DHT22;12832;52.392;13.066;2023-08-06T02:28:31;27.30;47.40
24730;DHT22;12832;52.392;13.066;2023-08-06T02:30:57;27.30;47.40
24730;DHT22;12832;52.392;13.066;2023-08-06T02:33:23;27.30;47.40
24730;DHT22;12832;52.392;13.066;2023-08-06T02:35:50;27.30;47.40
24730;DHT22;12832;52.392;13.066;2023-08-06T02:38:16;27.30;47.40
24730;DHT22;12832;52.392;13.066;2023-08-06T02:40:43;27.30;47.50
24730;DHT22;12832;52.392;13.066;2023-08-06T02:43:10;27.30;47.50
24730;DHT22;12832;52.392;13.066;2023-08-06T02:45:37;27.30;47.50
24730;DHT22;12832;52.392;13.066;2023-08-06T02:48:03;27.30;47.50
24730;DHT22;12832;52.392;13.066;2023-08-06T02:50:29;27.30;47.50
24730;DHT22;12832;52.392;13.066;2023-08-06T02:52:55;27.30;47.90
24730;DHT22;12832;52.392;13.066;2023-08-06T02:55:22;27.30;47.50
24730;DHT22;12832;52.392;13.066;2023-08-06T02:57:48;27.30;47.60
24730;DHT22;12832;52.392;13.066;2023-08-06T03:00:14;27.30;47.60
24730;DHT22;12832;52.392;13.066;2023-08-06T03:02:40;27.30;47.70
24730;DHT22;12832;52.392;13.066;2023-08-06T03:05:07;27.20;47.60
24730;DHT22;12832;52.392;13.066;2023-08-06T03:07:33;27.20;47.70
24730;DHT22;12832;52.392;13.066;2023-08-06T03:10:02;27.20;47.70
24730;DHT22;12832;52.392;13.066;2023-08-06T03:12:28;27.20;47.70
24730;DHT22;12832;52.392;13.066;2023-08-06T03:14:54;27.20;47.70
24730;DHT22;12832;52.392;13.066;2023-08-06T03:17:20;27.20;47.70
24730;DHT22;12832;52.392;13.066;2023-08-06T03:19:47;27.20;47.80
24730;DHT22;12832;52.392;13.066;2023-08-06T03:22:13;27.20;47.80
24730;DHT22;12832;52.392;13.066;2023-08-06T03:24:39;27.20;47.80
24730;DHT22;12832;52.392;13.066;2023-08-06T03:27:05;27.20;47.90
24730;DHT22;12832;52.392;13.066;2023-08-06T03:29:31;27.20;47.90
24730;DHT22;12832;52.392;13.066;2023-08-06T03:31:58;27.20;48.00
24730;DHT22;12832;52.392;13.066;2023-08-06T03:34:24;27.20;48.00
24730;DHT22;12832;52.392;13.066;2023-08-06T03:36:50;27.20;48.00
24730;DHT22;12832;52.392;13.066;2023-08-06T03:39:16;27.20;48.00
24730;DHT22;12832;52.392;13.066;2023-08-06T03:41:42;27.10;47.90
24730;DHT22;12832;52.392;13.066;2023-08-06T03:44:09;27.10;47.90
24730;DHT22;12832;52.392;13.066;2023-08-06T03:46:35;27.20;48.00
24730;DHT22;12832;52.392;13.066;2023-08-06T03:49:01;27.10;47.90
24730;DHT22;12832;52.392;13.066;2023-08-06T03:51:27;27.20;48.00
24730;DHT22;12832;52.392;13.066;2023-08-06T03:53:54;27.10;48.00
24730;DHT22;12832;52.392;13.066;2023-08-06T03:56:20;27.10;48.10
24730;DHT22;12832;52.392;13.066;2023-08-06T03:58:46;27.10;48.10
24730;DHT22;12832;52.392;13.066;2023-08-06T04:01:12;27.10;48.10
24730;DHT22;12832;52.392;13.066;2023-08-06T04:03:38;27.10;48.10
24730;DHT22;12832;52.392;13.066;2023-08-06T04:06:05;27.10;48.80
24730;DHT22;12832;52.392;13.066;2023-08-06T04:08:32;27.10;48.20
24730;DHT22;12832;52.392;13.066;2023-08-06T04:10:58;27.10;48.20
24730;DHT22;12832;52.392;13.066;2023-08-06T04:13:24;27.10;48.20
24730;DHT22;12832;52.392;13.066;2023-08-06T04:15:50;27.10;48.30
24730;DHT22;12832;52.392;13.066;2023-08-06T04:18:17;27.10;48.20
24730;DHT22;12832;52.392;13.066;2023-08-06T04:20:44;27.10;48.20
24730;DHT22;12832;52.392;13.066;2023-08-06T04:23:11;27.10;48.30
24730;DHT22;12832;52.392;13.066;2023-08-06T04:25:37;27.10;48.40
24730;DHT22;12832;52.392;13.066;2023-08-06T04:28:04;27.10;48.40
24730;DHT22;12832;52.392;13.066;2023-08-06T04:30:30;27.10;48.40
24730;DHT22;12832;52.392;13.066;2023-08-06T04:32:57;27.10;48.40
24730;DHT22;12832;52.392;13.066;2023-08-06T04:35:24;27.10;48.40
24730;DHT22;12832;52.392;13.066;2023-08-06T04:37:51;27.10;48.40
24730;DHT22;12832;52.392;13.066;2023-08-06T04:40:17;27.10;48.40
24730;DHT22;12832;52.392;13.066;2023-08-06T04:42:43;27.10;48.40
24730;DHT22;12832;52.392;13.066;2023-08-06T04:45:09;27.10;48.40
24730;DHT22;12832;52.392;13.066;2023-08-06T04:47:36;27.10;48.40
24730;DHT22;12832;52.392;13.066;2023-08-06T04:50:02;27.10;48.50
24730;DHT22;12832;52.392;13.066;2023-08-06T04:52:28;27.10;48.50
24730;DHT22;12832;52.392;13.066;2023-08-06T04:54:55;27.10;48.50
24730;DHT22;12832;52.392;13.066;2023-08-06T04:57:21;27.10;48.50
24730;DHT22;12832;52.392;13.066;2023-08-06T04:59:47;27.10;48.50
24730;DHT22;12832;52.392;13.066;2023-08-06T05:02:13;27.00;48.50
24730;DHT22;12832;52.392;13.066;2023-08-06T05:04:39;27.00;48.60
24730;DHT22;12832;52.392;13.066;2023-08-06T05:07:06;27.00;48.50
24730;DHT22;12832;52.392;13.066;2023-08-06T05:09:32;27.10;48.60
24730;DHT22;12832;52.392;13.066;2023-08-06T05:12:01;27.00;48.50
24730;DHT22;12832;52.392;13.066;2023-08-06T05:14:28;27.10;48.60
24730;DHT22;12832;52.392;13.066;2023-08-06T05:16:54;27.10;48.60
24730;DHT22;12832;52.392;13.066;2023-08-06T05:19:20;27.00;48.50
24730;DHT22;12832;52.392;13.066;2023-08-06T05:21:46;27.00;48.50
24730;DHT22;12832;52.392;13.066;2023-08-06T05:24:13;27.00;48.50
24730;DHT22;12832;52.392;13.066;2023-08-06T05:26:39;27.00;48.50
24730;DHT22;12832;52.392;13.066;2023-08-06T05:29:05;27.00;48.50
24730;DHT22;12832;52.392;13.066;2023-08-06T05:31:31;27.10;48.50
24730;DHT22;12832;52.392;13.066;2023-08-06T05:33:57;27.10;48.50
24730;DHT22;12832;52.392;13.066;2023-08-06T05:36:24;27.10;48.50
24730;DHT22;12832;52.392;13.066;2023-08-06T05:38:50;27.10;48.60
24730;DHT22;12832;52.392;13.066;2023-08-06T05:41:16;27.10;48.50
24730;DHT22;12832;52.392;13.066;2023-08-06T05:43:42;27.10;48.50
24730;DHT22;12832;52.392;13.066;2023-08-06T05:46:08;27.10;48.50
24730;DHT22;12832;52.392;13.066;2023-08-06T05:48:34;27.10;48.50
24730;DHT22;12832;52.392;13.066;2023-08-06T05:51:01;27.10;48.60
24730;DHT22;12832;52.392;13.066;2023-08-06T05:53:27;27.10;48.50
24730;DHT22;12832;52.392;13.066;2023-08-06T05:55:53;27.10;48.50
24730;DHT22;12832;52.392;13.066;2023-08-06T05:58:20;27.10;48.50
24730;DHT22;12832;52.392;13.066;2023-08-06T06:00:46;27.10;48.50
24730;DHT22;12832;52.392;13.066;2023-08-06T06:03:12;27.10;48.50
24730;DHT22;12832;52.392;13.066;2023-08-06T06:05:38;27.10;48.50
24730;DHT22;12832;52.392;13.066;2023-08-06T06:08:05;27.10;48.50
24730;DHT22;12832;52.392;13.066;2023-08-06T06:10:31;27.10;48.50
24730;DHT22;12832;52.392;13.066;2023-08-06T06:12:57;27.10;48.50
24730;DHT22;12832;52.392;13.066;2023-08-06T06:15:23;27.10;48.50
24730;DHT22;12832;52.392;13.066;2023-08-06T06:17:49;27.10;48.50
24730;DHT22;12832;52.392;13.066;2023-08-06T06:20:16;27.10;48.50
24730;DHT22;12832;52.392;13.066;2023-08-06T06:22:42;27.10;49.20
24730;DHT22;12832;52.392;13.066;2023-08-06T06:25:08;27.10;48.40
24730;DHT22;12832;52.392;13.066;2023-08-06T06:27:36;27.10;48.40
24730;DHT22;12832;52.392;13.066;2023-08-06T06:30:02;27.10;48.40
24730;DHT22;12832;52.392;13.066;2023-08-06T06:32:30;27.10;48.40
24730;DHT22;12832;52.392;13.066;2023-08-06T06:34:56;27.10;48.40
24730;DHT22;12832;52.392;13.066;2023-08-06T06:37:22;27.10;48.40
24730;DHT22;12832;52.392;13.066;2023-08-06T06:39:48;27.10;48.40
24730;DHT22;12832;52.392;13.066;2023-08-06T06:42:15;27.10;48.40
24730;DHT22;12832;52.392;13.066;2023-08-06T06:44:41;27.10;48.40
24730;DHT22;12832;52.392;13.066;2023-08-06T06:47:07;27.10;48.40
24730;DHT22;12832;52.392;13.066;2023-08-06T06:49:33;27.10;48.40
24730;DHT22;12832;52.392;13.066;2023-08-06T06:51:59;27.10;48.40
24730;DHT22;12832;52.392;13.066;2023-08-06T06:54:26;27.20;48.40
24730;DHT22;12832;52.392;13.066;2023-08-06T06:56:52;27.20;48.40
24730;DHT22;12832;52.392;13.066;2023-08-06T06:59:18;27.10;48.40
24730;DHT22;12832;52.392;13.066;2023-08-06T07:01:44;27.10;48.40
24730;DHT22;12832;52.392;13.066;2023-08-06T07:04:10;27.10;48.40
24730;DHT22;12832;52.392;13.066;2023-08-06T07:06:37;27.10;48.40
24730;DHT22;12832;52.392;13.066;2023-08-06T07:09:03;27.20;48.40
24730;DHT22;12832;52.392;13.066;2023-08-06T07:11:29;27.10;48.40
24730;DHT22;12832;52.392;13.066;2023-08-06T07:13:58;27.20;48.40
24730;DHT22;12832;52.392;13.066;2023-08-06T07:16:25;27.10;48.30
24730;DHT22;12832;52.392;13.066;2023-08-06T07:18:53;27.10;48.40
24730;DHT22;12832;52.392;13.066;2023-08-06T07:21:19;27.20;48.40
24730;DHT22;12832;52.392;13.066;2023-08-06T07:23:46;27.20;48.40
24730;DHT22;12832;52.392;13.066;2023-08-06T07:26:12;27.20;48.40
24730;DHT22;12832;52.392;13.066;2023-08-06T07:28:38;27.10;48.30
24730;DHT22;12832;52.392;13.066;2023-08-06T07:31:04;27.20;48.40
24730;DHT22;12832;52.392;13.066;2023-08-06T07:33:34;27.10;48.30
24730;DHT22;12832;52.392;13.066;2023-08-06T07:36:08;27.20;48.40
24730;DHT22;12832;52.392;13.066;2023-08-06T07:38:34;27.20;48.40
24730;DHT22;12832;52.392;13.066;2023-08-06T07:41:02;27.20;48.40
24730;DHT22;12832;52.392;13.066;2023-08-06T07:43:28;27.20;48.40
24730;DHT22;12832;52.392;13.066;2023-08-06T07:45:58;27.20;48.40
24730;DHT22;12832;52.392;13.066;2023-08-06T07:48:24;27.20;48.40
24730;DHT22;12832;52.392;13.066;2023-08-06T07:50:57;27.20;48.40
24730;DHT22;12832;52.392;13.066;2023-08-06T07:53:24;27.20;48.40
24730;DHT22;12832;52.392;13.066;2023-08-06T07:55:53;27.20;49.00
24730;DHT22;12832;52.392;13.066;2023-08-06T07:58:20;27.20;48.40
24730;DHT22;12832;52.392;13.066;2023-08-06T08:00:47;27.20;48.40
24730;DHT22;12832;52.392;13.066;2023-08-06T08:03:14;27.20;48.30
24730;DHT22;12832;52.392;13.066;2023-08-06T08:05:44;27.20;48.30
24730;DHT22;12832;52.392;13.066;2023-08-06T08:08:10;27.20;48.30
24730;DHT22;12832;52.392;13.066;2023-08-06T08:10:36;27.20;48.30
24730;DHT22;12832;52.392;13.066;2023-08-06T08:13:04;27.20;48.30
24730;DHT22;12832;52.392;13.066;2023-08-06T08:15:31;27.20;48.30
24730;DHT22;12832;52.392;13.066;2023-08-06T08:17:59;27.20;48.30
24730;DHT22;12832;52.392;13.066;2023-08-06T08:20:25;27.20;48.30
24730;DHT22;12832;52.392;13.066;2023-08-06T08:22:58;27.20;48.30
24730;DHT22;12832;52.392;13.066;2023-08-06T08:25:25;27.20;48.30
24730;DHT22;12832;52.392;13.066;2023-08-06T08:27:52;27.20;48.30
24730;DHT22;12832;52.392;13.066;2023-08-06T08:30:18;27.20;48.30
24730;DHT22;12832;52.392;13.066;2023-08-06T08:32:44;27.20;48.30
24730;DHT22;12832;52.392;13.066;2023-08-06T08:35:10;27.20;48.30
24730;DHT22;12832;52.392;13.066;2023-08-06T08:37:41;27.20;48.30
24730;DHT22;12832;52.392;13.066;2023-08-06T08:40:08;27.20;48.30
24730;DHT22;12832;52.392;13.066;2023-08-06T08:42:35;27.20;48.30
24730;DHT22;12832;52.392;13.066;2023-08-06T08:45:04;27.20;48.30
24730;DHT22;12832;52.392;13.066;2023-08-06T08:47:30;27.20;48.30
24730;DHT22;12832;52.392;13.066;2023-08-06T08:49:58;27.20;48.30
24730;DHT22;12832;52.392;13.066;2023-08-06T08:52:26;27.20;48.30
24730;DHT22;12832;52.392;13.066;2023-08-06T08:55:01;27.20;48.30
24730;DHT22;12832;52.392;13.066;2023-08-06T08:57:27;27.20;48.30
24730;DHT22;12832;52.392;13.066;2023-08-06T08:59:54;27.20;48.30
24730;DHT22;12832;52.392;13.066;2023-08-06T09:02:21;27.20;48.30
24730;DHT22;12832;52.392;13.066;2023-08-06T09:04:48;27.30;48.40
24730;DHT22;12832;52.392;13.066;2023-08-06T09:07:18;27.20;48.30
24730;DHT22;12832;52.392;13.066;2023-08-06T09:09:49;27.20;48.30
24730;DHT22;12832;52.392;13.066;2023-08-06T09:12:16;27.20;48.30
24730;DHT22;12832;52.392;13.066;2023-08-06T09:14:43;27.20;48.90
24730;DHT22;12832;52.392;13.066;2023-08-06T09:17:09;27.20;48.20
24730;DHT22;12832;52.392;13.066;2023-08-06T09:19:42;27.20;48.30
24730;DHT22;12832;52.392;13.066;2023-08-06T09:22:13;27.20;48.20
24730;DHT22;12832;52.392;13.066;2023-08-06T09:24:43;27.20;48.30
24730;DHT22;12832;52.392;13.066;2023-08-06T09:27:13;27.20;48.30
24730;DHT22;12832;52.392;13.066;2023-08-06T09:29:41;27.20;48.30
24730;DHT22;12832;52.392;13.066;2023-08-06T09:32:08;27.20;48.30
24730;DHT22;12832;52.392;13.066;2023-08-06T09:34:34;27.20;48.30
24730;DHT22;12832;52.392;13.066;2023-08-06T09:37:00;27.20;48.20
24730;DHT22;12832;52.392;13.066;2023-08-06T09:39:28;27.20;48.30
24730;DHT22;12832;52.392;13.066;2023-08-06T09:41:59;27.20;48.30
24730;DHT22;12832;52.392;13.066;2023-08-06T09:44:27;27.20;48.20
24730;DHT22;12832;52.392;13.066;2023-08-06T09:47:02;27.20;48.30
24730;DHT22;12832;52.392;13.066;2023-08-06T09:49:40;27.20;48.20
24730;DHT22;12832;52.392;13.066;2023-08-06T09:52:12;27.20;48.20
24730;DHT22;12832;52.392;13.066;2023-08-06T09:54:39;27.20;48.20
24730;DHT22;12832;52.392;13.066;2023-08-06T09:57:06;27.20;48.30
24730;DHT22;12832;52.392;13.066;2023-08-06T09:59:33;27.20;48.30
24730;DHT22;12832;52.392;13.066;2023-08-06T10:02:00;27.20;48.20
24730;DHT22;12832;52.392;13.066;2023-08-06T10:04:29;27.20;48.20
24730;DHT22;12832;52.392;13.066;2023-08-06T10:07:06;27.20;48.20
24730;DHT22;12832;52.392;13.066;2023-08-06T10:09:33;27.20;48.20
24730;DHT22;12832;52.392;13.066;2023-08-06T10:12:00;27.20;48.20
24730;DHT22;12832;52.392;13.066;2023-08-06T10:14:30;27.20;48.30
24730;DHT22;12832;52.392;13.066;2023-08-06T10:16:59;27.20;48.20
24730;DHT22;12832;52.392;13.066;2023-08-06T10:19:26;27.20;48.20
24730;DHT22;12832;52.392;13.066;2023-08-06T10:22:13;27.20;48.20
24730;DHT22;12832;52.392;13.066;2023-08-06T10:27:29;27.20;48.20
24730;DHT22;12832;52.392;13.066;2023-08-06T10:30:14;27.20;48.30
24730;DHT22;12832;52.392;13.066;2023-08-06T10:32:47;27.20;48.20
24730;DHT22;12832;52.392;13.066;2023-08-06T10:35:34;27.20;48.20
24730;DHT22;12832;52.392;13.066;2023-08-06T10:40:36;27.20;48.20
24730;DHT22;12832;52.392;13.066;2023-08-06T10:43:04;27.20;48.20
24730;DHT22;12832;52.392;13.066;2023-08-06T10:45:36;27.20;48.20
24730;DHT22;12832;52.392;13.066;2023-08-06T10:48:03;27.30;48.30
24730;DHT22;12832;52.392;13.066;2023-08-06T10:50:30;27.30;48.30
24730;DHT22;12832;52.392;13.066;2023-08-06T10:52:57;27.20;48.20
24730;DHT22;12832;52.392;13.066;2023-08-06T10:55:29;27.20;48.20
24730;DHT22;12832;52.392;13.066;2023-08-06T10:57:56;27.20;48.90
24730;DHT22;12832;52.392;13.066;2023-08-06T11:00:23;27.30;48.30
24730;DHT22;12832;52.392;13.066;2023-08-06T11:02:52;27.20;48.20
24730;DHT22;12832;52.392;13.066;2023-08-06T11:05:18;27.30;48.40
24730;DHT22;12832;52.392;13.066;2023-08-06T11:07:45;27.20;48.20
24730;DHT22;12832;52.392;13.066;2023-08-06T11:10:12;27.30;48.30
24730;DHT22;12832;52.392;13.066;2023-08-06T11:12:39;27.30;48.30
24730;DHT22;12832;52.392;13.066;2023-08-06T11:15:06;27.30;48.30
24730;DHT22;12832;52.392;13.066;2023-08-06T11:17:34;27.30;48.30
24730;DHT22;12832;52.392;13.066;2023-08-06T11:20:04;27.30;48.30
24730;DHT22;12832;52.392;13.066;2023-08-06T11:22:31;27.30;48.30
24730;DHT22;12832;52.392;13.066;2023-08-06T11:24:57;27.30;48.30
24730;DHT22;12832;52.392;13.066;2023-08-06T11:27:26;27.30;48.30
24730;DHT22;12832;52.392;13.066;2023-08-06T11:29:54;27.30;48.30
24730;DHT22;12832;52.392;13.066;2023-08-06T11:32:20;27.30;48.30
24730;DHT22;12832;52.392;13.066;2023-08-06T11:34:46;27.30;48.30
24730;DHT22;12832;52.392;13.066;2023-08-06T11:37:13;27.30;48.30
24730;DHT22;12832;52.392;13.066;2023-08-06T11:39:46;27.30;48.30
24730;DHT22;12832;52.392;13.066;2023-08-06T11:42:12;27.30;48.30
24730;DHT22;12832;52.392;13.066;2023-08-06T11:44:40;27.30;48.30
24730;DHT22;12832;52.392;13.066;2023-08-06T11:47:16;27.30;48.30
24730;DHT22;12832;52.392;13.066;2023-08-06T11:49:44;27.30;48.30
24730;DHT22;12832;52.392;13.066;2023-08-06T11:52:25;27.30;48.30
24730;DHT22;12832;52.392;13.066;2023-08-06T11:55:08;27.30;48.30
24730;DHT22;12832;52.392;13.066;2023-08-06T11:57:39;27.30;48.30
24730;DHT22;12832;52.392;13.066;2023-08-06T12:02:35;27.30;48.30
24730;DHT22;12832;52.392;13.066;2023-08-06T12:05:09;27.30;48.30
24730;DHT22;12832;52.392;13.066;2023-08-06T12:07:40;27.30;48.30
24730;DHT22;12832;52.392;13.066;2023-08-06T12:10:08;27.30;48.30
24730;DHT22;12832;52.392;13.066;2023-08-06T12:12:35;27.30;48.30
24730;DHT22;12832;52.392;13.066;2023-08-06T12:15:01;27.30;48.30
24730;DHT22;12832;52.392;13.066;2023-08-06T12:17:28;27.30;48.30
24730;DHT22;12832;52.392;13.066;2023-08-06T12:19:54;27.30;48.30
24730;DHT22;12832;52.392;13.066;2023-08-06T12:22:20;27.30;48.30
24730;DHT22;12832;52.392;13.066;2023-08-06T12:24:50;27.30;48.30
24730;DHT22;12832;52.392;13.066;2023-08-06T12:27:16;27.30;48.30
24730;DHT22;12832;52.392;13.066;2023-08-06T12:29:44;27.30;48.30
24730;DHT22;12832;52.392;13.066;2023-08-06T12:32:11;27.30;48.30
24730;DHT22;12832;52.392;13.066;2023-08-06T12:34:39;27.30;48.30
24730;DHT22;12832;52.392;13.066;2023-08-06T12:37:19;27.30;48.30
24730;DHT22;12832;52.392;13.066;2023-08-06T12:39:45;27.30;48.30
24730;DHT22;12832;52.392;13.066;2023-08-06T12:42:11;27.30;48.30
24730;DHT22;12832;52.392;13.066;2023-08-06T12:44:37;27.30;48.30
24730;DHT22;12832;52.392;13.066;2023-08-06T12:47:04;27.30;48.30
24730;DHT22;12832;52.392;13.066;2023-08-06T12:49:30;27.30;48.30
24730;DHT22;12832;52.392;13.066;2023-08-06T12:51:57;27.30;48.30
24730;DHT22;12832;52.392;13.066;2023-08-06T12:54:26;27.30;48.30
24730;DHT22;12832;52.392;13.066;2023-08-06T12:56:52;27.30;48.90
24730;DHT22;12832;52.392;13.066;2023-08-06T12:59:19;27.30;48.30
24730;DHT22;12832;52.392;13.066;2023-08-06T13:01:45;27.30;48.30
24730;DHT22;12832;52.392;13.066;2023-08-06T13:04:12;27.40;48.30
24730;DHT22;12832;52.392;13.066;2023-08-06T13:06:48;27.30;48.30
24730;DHT22;12832;52.392;13.066;2023-08-06T13:09:15;27.30;48.20
24730;DHT22;12832;52.392;13.066;2023-08-06T13:11:41;27.30;48.30
24730;DHT22;12832;52.392;13.066;2023-08-06T13:14:10;27.30;48.30
24730;DHT22;12832;52.392;13.066;2023-08-06T13:16:37;27.30;48.30
24730;DHT22;12832;52.392;13.066;2023-08-06T13:19:05;27.30;48.30
24730;DHT22;12832;52.392;13.066;2023-08-06T13:21:36;27.30;48.30
24730;DHT22;12832;52.392;13.066;2023-08-06T13:24:18;27.30;48.30
24730;DHT22;12832;52.392;13.066;2023-08-06T13:26:45;27.30;48.30
24730;DHT22;12832;52.392;13.066;2023-08-06T13:29:11;27.30;48.30
24730;DHT22;12832;52.392;13.066;2023-08-06T13:31:37;27.30;48.30
24730;DHT22;12832;52.392;13.066;2023-08-06T13:34:04;27.30;48.30
24730;DHT22;12832;52.392;13.066;2023-08-06T13:36:30;27.30;48.90
24730;DHT22;12832;52.392;13.066;2023-08-06T13:38:57;27.30;48.30
24730;DHT22;12832;52.392;13.066;2023-08-06T13:41:23;27.30;48.30
24730;DHT22;12832;52.392;13.066;2023-08-06T13:43:49;27.30;48.30
24730;DHT22;12832;52.392;13.066;2023-08-06T13:46:17;27.30;48.30
24730;DHT22;12832;52.392;13.066;2023-08-06T13:48:47;27.30;48.30
24730;DHT22;12832;52.392;13.066;2023-08-06T13:51:14;27.30;48.30
24730;DHT22;12832;52.392;13.066;2023-08-06T13:53:41;27.30;48.30
24730;DHT22;12832;52.392;13.066;2023-08-06T13:56:08;27.30;48.30
24730;DHT22;12832;52.392;13.066;2023-08-06T13:58:38;27.30;48.30
24730;DHT22;12832;52.392;13.066;2023-08-06T14:01:04;27.30;48.30
24730;DHT22;12832;52.392;13.066;2023-08-06T14:03:31;27.30;48.30
24730;DHT22;12832;52.392;13.066;2023-08-06T14:05:57;27.30;48.20
24730;DHT22;12832;52.392;13.066;2023-08-06T14:08:24;27.30;48.30
24730;DHT22;12832;52.392;13.066;2023-08-06T14:10:51;27.30;48.30
24730;DHT22;12832;52.392;13.066;2023-08-06T14:13:17;27.30;48.20
24730;DHT22;12832;52.392;13.066;2023-08-06T14:15:44;27.30;48.20
24730;DHT22;12832;52.392;13.066;2023-08-06T14:18:16;27.30;48.20
24730;DHT22;12832;52.392;13.066;2023-08-06T14:20:43;27.30;48.20
24730;DHT22;12832;52.392;13.066;2023-08-06T14:23:09;27.30;48.30
24730;DHT22;12832;52.392;13.066;2023-08-06T14:25:36;27.30;48.20
24730;DHT22;12832;52.392;13.066;2023-08-06T14:28:02;27.30;48.20
24730;DHT22;12832;52.392;13.066;2023-08-06T14:30:29;27.30;48.20
24730;DHT22;12832;52.392;13.066;2023-08-06T14:32:55;27.30;48.20
24730;DHT22;12832;52.392;13.066;2023-08-06T14:35:21;27.30;48.30
24730;DHT22;12832;52.392;13.066;2023-08-06T14:37:47;27.30;48.20
24730;DHT22;12832;52.392;13.066;2023-08-06T14:40:14;27.30;48.20
24730;DHT22;12832;52.392;13.066;2023-08-06T14:42:40;27.30;48.30
24730;DHT22;12832;52.392;13.066;2023-08-06T14:45:06;27.30;48.30
24730;DHT22;12832;52.392;13.066;2023-08-06T14:47:32;27.30;48.30
24730;DHT22;12832;52.392;13.066;2023-08-06T14:49:59;27.30;48.20
24730;DHT22;12832;52.392;13.066;2023-08-06T14:52:25;27.30;48.30
24730;DHT22;12832;52.392;13.066;2023-08-06T14:54:51;27.30;48.30
24730;DHT22;12832;52.392;13.066;2023-08-06T14:57:21;27.30;48.30
24730;DHT22;12832;52.392;13.066;2023-08-06T14:59:54;27.30;48.30
24730;DHT22;12832;52.392;13.066;2023-08-06T15:02:20;27.30;48.30
24730;DHT22;12832;52.392;13.066;2023-08-06T15:04:46;27.30;48.20
24730;DHT22;12832;52.392;13.066;2023-08-06T15:07:13;27.30;48.20
24730;DHT22;12832;52.392;13.066;2023-08-06T15:09:39;27.30;48.30
24730;DHT22;12832;52.392;13.066;2023-08-06T15:12:25;27.30;48.20
24730;DHT22;12832;52.392;13.066;2023-08-06T15:14:51;27.30;48.30
24730;DHT22;12832;52.392;13.066;2023-08-06T15:17:18;27.40;48.40
24730;DHT22;12832;52.392;13.066;2023-08-06T15:19:44;27.30;48.30
24730;DHT22;12832;52.392;13.066;2023-08-06T15:22:10;27.30;48.40
24730;DHT22;12832;52.392;13.066;2023-08-06T15:24:38;27.40;48.50
24730;DHT22;12832;52.392;13.066;2023-08-06T15:27:08;27.30;48.40